Time;durP1;ratioP1;P1;durP2;ratioP2;P2;SDS_P1;SDS_P2;PMS_P1;PMS_P2;Temp;Humidity;BMP_temperature;BMP_pressure;BME280_temperature;BME280_humidity;BME280_pressure;Samples;Min_cycle;Max_cycle;Signal;HPM_P1;HPM_P2
2022/06/01 00:00:48;;;;;;;2.05;1.40;;;12.80;99.90;;;;;;4977968;28;20030;-74
2022/06/01 00:03:15;;;;;;;2.45;1.30;;;12.80;99.90;;;;;;4977379;28;20066;-74
2022/06/01 00:05:41;;;;;;;3.08;1.60;;;12.80;99.90;;;;;;4959992;28;20535;-75
2022/06/01 00:08:07;;;;;;;3.03;1.88;;;12.80;99.90;;;;;;4973082;28;20037;-74
2022/06/01 00:10:33;;;;;;;3.65;1.77;;;12.90;99.90;;;;;;4981961;28;20490;-74
2022/06/01 00:12:59;;;;;;;2.10;1.52;;;12.90;99.90;;;;;;4983835;28;20088;-75
2022/06/01 00:15:27;;;;;;;2.42;1.80;;;12.90;99.90;;;;;;4980030;28;20034;-74
2022/06/01 00:17:53;;;;;;;2.05;1.30;;;12.90;99.90;;;;;;4972945;28;20089;-74
2022/06/01 00:20:19;;;;;;;2.35;1.50;;;12.90;99.90;;;;;;4979212;28;20101;-74
2022/06/01 00:22:45;;;;;;;2.25;1.65;;;12.90;99.90;;;;;;4960067;28;20026;-74
2022/06/01 00:25:13;;;;;;;4.18;1.70;;;12.90;99.90;;;;;;4975353;28;21770;-74
2022/06/01 00:27:39;;;;;;;2.03;1.60;;;12.90;99.90;;;;;;4957173;28;20037;-73
2022/06/01 00:30:08;;;;;;;2.78;1.83;;;12.90;99.90;;;;;;4979094;28;20034;-73
2022/06/01 00:32:34;;;;;;;2.97;1.52;;;12.90;99.90;;;;;;4975160;28;20446;-74
2022/06/01 00:35:02;;;;;;;2.70;1.67;;;12.90;99.90;;;;;;4978691;28;20089;-73
2022/06/01 00:37:28;;;;;;;2.05;1.65;;;12.80;99.90;;;;;;4970115;28;20160;-74
2022/06/01 00:39:53;;;;;;;3.33;1.85;;;12.80;99.90;;;;;;4977070;28;20054;-75
2022/06/01 00:42:23;;;;;;;1.80;1.45;;;12.80;99.90;;;;;;4978655;28;20438;-75
2022/06/01 00:44:50;;;;;;;2.40;1.58;;;12.80;99.90;;;;;;4975157;28;20037;-75
2022/06/01 00:47:16;;;;;;;3.00;1.85;;;12.70;99.90;;;;;;4957706;28;20088;-75
2022/06/01 00:49:54;;;;;;;2.63;1.55;;;12.70;99.90;;;;;;4963647;28;20034;-74
2022/06/01 00:52:35;;;;;;;4.35;1.75;;;12.70;99.90;;;;;;4984753;28;20030;-74
2022/06/01 00:55:21;;;;;;;3.65;1.85;;;12.60;99.90;;;;;;4981432;28;20045;-73
2022/06/01 00:57:50;;;;;;;2.58;1.67;;;12.50;99.90;;;;;;4981738;28;20098;-74
2022/06/01 01:00:23;;;;;;;3.78;1.73;;;12.50;99.90;;;;;;4977846;28;20073;-73
2022/06/01 01:02:52;;;;;;;2.90;1.60;;;12.50;99.90;;;;;;4979712;28;20583;-74
2022/06/01 01:05:20;;;;;;;1.85;1.60;;;12.40;99.90;;;;;;4980811;28;20065;-74
2022/06/01 01:07:46;;;;;;;3.50;2.10;;;12.40;99.90;;;;;;4973420;28;20039;-74
2022/06/01 01:10:14;;;;;;;3.90;1.70;;;12.40;99.90;;;;;;4979797;28;20037;-74
2022/06/01 01:12:56;;;;;;;2.55;1.70;;;12.30;99.90;;;;;;4980763;28;20041;-74
2022/06/01 01:15:27;;;;;;;2.35;1.50;;;12.30;99.90;;;;;;4983022;28;20101;-75
2022/06/01 01:17:54;;;;;;;2.03;1.38;;;12.30;99.90;;;;;;4976947;28;20030;-74
2022/06/01 01:20:20;;;;;;;3.25;1.52;;;12.20;99.90;;;;;;4987433;28;20030;-74
2022/06/01 01:23:17;;;;;;;2.30;1.60;;;12.10;99.90;;;;;;4982995;28;20027;-74
2022/06/01 01:25:42;;;;;;;2.13;1.77;;;12.10;99.90;;;;;;4981769;28;20030;-74
2022/06/01 01:28:09;;;;;;;3.38;1.88;;;12.10;99.90;;;;;;4985136;28;20041;-75
2022/06/01 01:30:38;;;;;;;1.92;1.60;;;12.10;99.90;;;;;;4982378;28;20062;-72
2022/06/01 01:33:22;;;;;;;2.03;1.65;;;12.00;99.90;;;;;;5002332;28;20054;-74
2022/06/01 01:35:52;;;;;;;2.92;1.60;;;12.00;99.90;;;;;;4981370;28;20109;-74
2022/06/01 01:38:49;;;;;;;2.85;1.90;;;12.00;99.90;;;;;;4982632;28;20030;-74
2022/06/01 01:41:31;;;;;;;3.50;1.63;;;11.90;99.90;;;;;;4982497;28;20050;-74
2022/06/01 01:44:09;;;;;;;2.22;1.80;;;11.80;99.90;;;;;;4965898;28;20050;-73
2022/06/01 01:46:36;;;;;;;3.17;1.70;;;11.80;99.90;;;;;;4971571;28;20023;-73
2022/06/01 01:49:02;;;;;;;3.65;2.03;;;11.80;99.90;;;;;;4984125;28;20649;-73
2022/06/01 01:51:29;;;;;;;1.92;1.60;;;11.80;99.90;;;;;;4982390;28;20056;-74
2022/06/01 01:53:56;;;;;;;1.85;1.40;;;11.80;99.90;;;;;;4977854;28;21564;-74
2022/06/01 01:56:43;;;;;;;2.75;1.92;;;11.80;99.90;;;;;;4985139;28;20072;-74
2022/06/01 01:59:44;;;;;;;2.85;1.90;;;11.80;99.90;;;;;;4964961;28;20049;-74
2022/06/01 02:02:28;;;;;;;2.22;1.55;;;11.80;99.90;;;;;;4965039;28;20038;-74
2022/06/01 02:07:56;;;;;;;3.70;2.30;;;11.80;99.90;;;;;;4982256;28;20085;-74
2022/06/01 02:13:07;;;;;;;2.53;2.00;;;11.80;99.90;;;;;;4986126;28;20046;-74
2022/06/01 02:15:39;;;;;;;2.45;1.98;;;11.80;99.90;;;;;;4981588;28;20498;-74
2022/06/01 02:18:12;;;;;;;2.30;1.90;;;11.90;99.90;;;;;;4984839;28;20038;-75
2022/06/01 02:20:47;;;;;;;2.10;1.80;;;11.80;99.90;;;;;;4978018;28;20046;-75
2022/06/01 02:23:15;;;;;;;2.67;1.95;;;11.80;99.90;;;;;;4980628;28;20033;-74
2022/06/01 02:25:44;;;;;;;2.58;2.13;;;11.80;99.90;;;;;;4981240;28;20696;-75
2022/06/01 02:28:11;;;;;;;2.20;2.00;;;11.80;99.90;;;;;;4983836;28;20037;-74
2022/06/01 02:30:40;;;;;;;4.85;2.10;;;11.80;99.90;;;;;;4975247;28;20031;-74
2022/06/01 02:33:09;;;;;;;3.05;1.90;;;11.90;99.90;;;;;;4978829;28;20510;-73
2022/06/01 02:35:38;;;;;;;1.85;1.65;;;11.90;99.90;;;;;;4981313;28;20145;-75
2022/06/01 02:38:10;;;;;;;1.98;1.55;;;11.90;99.90;;;;;;4977854;28;20039;-73
2022/06/01 02:40:37;;;;;;;2.67;1.85;;;11.90;99.90;;;;;;4980731;28;20126;-74
2022/06/01 02:43:03;;;;;;;2.83;1.75;;;11.80;99.90;;;;;;4977158;28;20041;-74
2022/06/01 02:45:29;;;;;;;4.32;2.50;;;11.90;99.90;;;;;;4976364;28;20077;-74
2022/06/01 02:47:56;;;;;;;3.55;2.22;;;11.90;99.90;;;;;;4981921;28;20704;-76
2022/06/01 02:50:28;;;;;;;3.88;2.40;;;11.90;99.90;;;;;;4983570;28;20042;-75
2022/06/01 02:52:54;;;;;;;3.05;2.03;;;11.90;99.90;;;;;;4982290;28;20475;-75
2022/06/01 02:55:21;;;;;;;4.15;2.33;;;11.90;99.90;;;;;;4976144;28;20478;-75
2022/06/01 02:57:49;;;;;;;2.42;2.00;;;11.90;99.90;;;;;;4972598;28;20036;-75
2022/06/01 03:00:24;;;;;;;6.55;2.00;;;11.90;99.90;;;;;;4972956;28;20037;-74
2022/06/01 03:02:52;;;;;;;3.00;2.45;;;11.80;99.90;;;;;;4978818;28;20534;-74
2022/06/01 03:05:20;;;;;;;2.90;2.33;;;11.80;99.90;;;;;;4976252;28;20038;-74
2022/06/01 03:07:46;;;;;;;2.42;2.17;;;11.80;99.90;;;;;;4972687;28;20407;-74
2022/06/01 03:10:12;;;;;;;3.25;2.42;;;11.70;99.90;;;;;;4977117;28;20030;-75
2022/06/01 03:12:39;;;;;;;2.83;2.25;;;11.70;99.90;;;;;;4977412;28;20041;-74
2022/06/01 03:15:07;;;;;;;4.25;2.42;;;11.70;99.90;;;;;;4983015;28;20107;-74
2022/06/01 03:17:33;;;;;;;2.90;2.45;;;11.70;99.90;;;;;;4984709;28;20209;-74
2022/06/01 03:20:00;;;;;;;2.05;1.85;;;11.60;99.90;;;;;;4983483;28;20045;-74
2022/06/01 03:22:26;;;;;;;2.67;2.45;;;11.60;99.90;;;;;;4983154;28;20018;-74
2022/06/01 03:24:52;;;;;;;2.55;2.17;;;11.60;99.90;;;;;;4984946;28;20031;-74
2022/06/01 03:27:18;;;;;;;4.20;2.28;;;11.50;99.90;;;;;;4982445;28;20521;-74
2022/06/01 03:29:45;;;;;;;2.75;2.10;;;11.50;99.90;;;;;;4984934;28;20053;-74
2022/06/01 03:32:12;;;;;;;2.13;1.77;;;11.50;99.90;;;;;;4979632;28;20054;-75
2022/06/01 03:34:38;;;;;;;3.42;2.42;;;11.50;99.90;;;;;;4979148;28;20033;-74
2022/06/01 03:37:05;;;;;;;7.45;2.78;;;11.50;99.90;;;;;;4981332;28;20030;-74
2022/06/01 03:39:31;;;;;;;3.20;2.22;;;11.50;99.90;;;;;;4980373;28;20022;-73
2022/06/01 03:41:56;;;;;;;3.53;2.17;;;11.50;99.90;;;;;;4999285;28;20153;-74
2022/06/01 03:47:11;;;;;;;3.08;2.10;;;11.60;99.90;;;;;;4997661;28;20081;-74
2022/06/01 03:49:37;;;;;;;3.38;2.30;;;11.60;99.90;;;;;;4976353;28;20540;-74
2022/06/01 03:52:05;;;;;;;2.90;2.42;;;11.60;99.90;;;;;;4966662;28;20082;-73
2022/06/01 03:54:31;;;;;;;2.90;2.10;;;11.60;99.90;;;;;;4982450;28;20702;-73
2022/06/01 03:56:57;;;;;;;2.45;1.80;;;11.60;99.90;;;;;;4975556;28;20030;-74
2022/06/01 03:59:23;;;;;;;3.00;2.03;;;11.70;99.90;;;;;;4982883;28;20022;-74
2022/06/01 04:01:49;;;;;;;2.58;2.25;;;11.70;99.90;;;;;;4976261;28;20026;-75
2022/06/01 04:04:14;;;;;;;2.83;2.15;;;11.80;99.90;;;;;;4985514;28;20039;-75
2022/06/01 04:06:40;;;;;;;2.55;2.08;;;11.80;99.90;;;;;;4979929;28;20470;-75
2022/06/01 04:09:06;;;;;;;4.85;2.28;;;11.90;99.90;;;;;;4983926;28;20026;-75
2022/06/01 04:11:31;;;;;;;2.85;2.28;;;12.00;99.90;;;;;;4978882;28;20033;-74
2022/06/01 04:13:57;;;;;;;3.33;2.13;;;12.00;99.90;;;;;;4977552;28;20113;-74
2022/06/01 04:16:23;;;;;;;2.95;2.22;;;12.10;99.90;;;;;;4960834;28;20775;-74
2022/06/01 04:18:49;;;;;;;3.55;2.40;;;12.10;99.90;;;;;;4980713;28;20031;-74
2022/06/01 04:21:18;;;;;;;3.22;2.17;;;12.20;99.90;;;;;;4976403;28;20381;-74
2022/06/01 04:23:44;;;;;;;2.70;2.50;;;12.20;99.90;;;;;;4954006;28;20030;-74
2022/06/01 04:26:16;;;;;;;2.78;2.38;;;12.20;99.90;;;;;;4968006;28;20609;-74
2022/06/01 04:28:42;;;;;;;3.42;2.55;;;12.30;99.90;;;;;;4972781;28;20113;-75
2022/06/01 04:31:08;;;;;;;4.03;2.88;;;12.30;99.90;;;;;;4980852;28;20041;-73
2022/06/01 04:33:34;;;;;;;4.03;2.63;;;12.30;99.90;;;;;;4975356;28;20034;-75
2022/06/01 04:35:59;;;;;;;4.68;2.75;;;12.30;99.90;;;;;;4959978;28;20072;-75
2022/06/01 04:38:26;;;;;;;3.80;2.95;;;12.40;99.90;;;;;;4978634;28;20105;-74
2022/06/01 04:40:53;;;;;;;4.38;2.83;;;12.40;99.90;;;;;;4980163;28;20027;-74
2022/06/01 04:43:21;;;;;;;5.03;2.75;;;12.50;99.90;;;;;;4986436;28;20057;-73
2022/06/01 04:45:50;;;;;;;4.03;2.83;;;12.50;99.90;;;;;;4979488;28;20551;-73
2022/06/01 04:48:16;;;;;;;3.22;2.60;;;12.50;99.90;;;;;;4992906;28;20045;-74
2022/06/01 04:50:43;;;;;;;4.90;2.50;;;12.50;99.90;;;;;;4969586;28;20022;-75
2022/06/01 04:53:12;;;;;;;4.38;2.83;;;12.60;99.90;;;;;;4976948;28;20573;-74
2022/06/01 04:55:38;;;;;;;3.08;2.55;;;12.60;99.90;;;;;;4974436;28;20129;-74
2022/06/01 04:58:04;;;;;;;3.10;2.40;;;12.60;99.90;;;;;;4978845;28;20069;-74
2022/06/01 05:00:30;;;;;;;3.42;2.75;;;12.50;99.90;;;;;;4981973;28;20051;-75
2022/06/01 05:02:55;;;;;;;3.17;2.63;;;12.60;99.90;;;;;;4979996;28;20030;-74
2022/06/01 05:05:21;;;;;;;3.92;2.13;;;12.60;99.90;;;;;;4977466;28;20595;-74
2022/06/01 05:07:48;;;;;;;3.05;2.30;;;12.60;99.90;;;;;;4974160;28;20066;-74
2022/06/01 05:10:14;;;;;;;3.05;2.75;;;12.60;99.90;;;;;;4965504;28;20064;-74
2022/06/01 05:12:39;;;;;;;3.10;2.47;;;12.70;99.90;;;;;;4978731;28;20483;-76
2022/06/01 05:15:06;;;;;;;3.20;2.40;;;12.60;99.90;;;;;;4975498;28;20034;-74
2022/06/01 05:17:32;;;;;;;3.10;2.42;;;12.60;99.90;;;;;;4977870;28;20026;-77
2022/06/01 05:19:58;;;;;;;3.17;2.30;;;12.60;99.90;;;;;;4981490;28;20894;-75
2022/06/01 05:22:25;;;;;;;4.15;2.70;;;12.60;99.90;;;;;;4981002;28;20045;-75
2022/06/01 05:24:51;;;;;;;2.97;2.45;;;12.60;99.90;;;;;;4977503;28;20038;-74
2022/06/01 05:27:17;;;;;;;3.55;2.50;;;12.60;99.90;;;;;;4974090;28;20089;-76
2022/06/01 05:29:43;;;;;;;4.25;2.83;;;12.50;99.90;;;;;;4974950;28;20038;-75
2022/06/01 05:32:10;;;;;;;3.00;2.35;;;12.50;99.90;;;;;;4972087;28;20044;-76
2022/06/01 05:34:36;;;;;;;2.67;2.42;;;12.50;99.90;;;;;;4975865;28;20787;-76
2022/06/01 05:37:03;;;;;;;5.30;2.50;;;12.50;99.90;;;;;;4960822;28;20038;-77
2022/06/01 05:39:29;;;;;;;3.55;2.22;;;12.50;99.90;;;;;;4972545;28;20033;-76
2022/06/01 05:41:55;;;;;;;3.50;2.42;;;12.50;99.90;;;;;;4972437;28;21068;-76
2022/06/01 05:44:22;;;;;;;3.30;2.65;;;12.50;99.90;;;;;;4982569;28;20031;-77
2022/06/01 05:46:56;;;;;;;4.85;2.95;;;12.50;99.90;;;;;;4988333;28;20027;-77
2022/06/01 05:49:22;;;;;;;5.00;3.03;;;12.50;99.90;;;;;;4982151;28;20033;-76
2022/06/01 05:51:47;;;;;;;5.43;3.15;;;12.50;99.90;;;;;;4985226;28;20038;-76
2022/06/01 05:54:13;;;;;;;5.57;3.80;;;12.50;99.90;;;;;;4976847;28;20118;-76
2022/06/01 05:56:38;;;;;;;8.18;4.47;;;12.50;99.90;;;;;;4973027;28;20452;-76
2022/06/01 05:59:04;;;;;;;6.60;4.75;;;12.50;99.90;;;;;;4980588;28;20032;-76
2022/06/01 06:01:30;;;;;;;6.25;4.18;;;12.60;99.90;;;;;;4958618;28;20491;-76
2022/06/01 06:03:56;;;;;;;8.70;5.65;;;12.50;99.90;;;;;;4959403;28;20499;-74
2022/06/01 06:06:23;;;;;;;6.68;5.47;;;12.30;99.90;;;;;;4976701;28;20434;-75
2022/06/01 06:09:02;;;;;;;10.15;6.88;;;12.30;99.90;;;;;;4974438;28;20037;-74
2022/06/01 06:11:30;;;;;;;8.18;5.57;;;12.30;99.90;;;;;;4975620;28;20018;-75
2022/06/01 06:13:58;;;;;;;6.55;5.38;;;12.30;99.90;;;;;;4942609;28;1211068;-76
2022/06/01 06:16:25;;;;;;;6.95;5.57;;;12.20;99.90;;;;;;4978519;28;20045;-76
2022/06/01 06:18:51;;;;;;;7.00;6.07;;;12.10;99.90;;;;;;4979177;28;20534;-75
2022/06/01 06:21:18;;;;;;;9.20;6.32;;;12.00;99.90;;;;;;4980263;28;20030;-76
2022/06/01 06:23:44;;;;;;;7.03;6.13;;;12.00;99.90;;;;;;4979436;28;20022;-76
2022/06/01 06:26:09;;;;;;;8.38;6.60;;;11.90;99.90;;;;;;4979931;28;20045;-76
2022/06/01 06:28:36;;;;;;;8.60;6.60;;;11.80;99.90;;;;;;4977778;28;20042;-78
2022/06/01 06:31:02;;;;;;;8.57;6.47;;;11.70;99.90;;;;;;4983777;28;20161;-77
2022/06/01 06:33:28;;;;;;;8.00;6.82;;;11.60;99.90;;;;;;4980095;28;20117;-77
2022/06/01 06:36:05;;;;;;;8.40;7.25;;;11.60;99.90;;;;;;4979705;28;20502;-77
2022/06/01 06:38:33;;;;;;;7.57;6.60;;;11.50;99.90;;;;;;4952413;28;20038;-76
2022/06/01 06:41:00;;;;;;;9.13;7.90;;;11.40;99.90;;;;;;4973350;28;20030;-76
2022/06/01 06:43:29;;;;;;;9.90;8.30;;;11.40;99.90;;;;;;4976000;28;20070;-76
2022/06/01 06:46:01;;;;;;;9.27;7.72;;;11.40;99.90;;;;;;4979789;28;20027;-76
2022/06/01 06:48:27;;;;;;;10.43;8.82;;;11.30;99.90;;;;;;4980708;28;20077;-77
2022/06/01 06:50:53;;;;;;;9.77;7.82;;;11.20;99.90;;;;;;4987645;28;20033;-76
2022/06/01 06:53:19;;;;;;;10.25;8.30;;;11.10;99.90;;;;;;4973079;28;20113;-76
2022/06/01 06:55:45;;;;;;;9.25;7.97;;;11.10;99.90;;;;;;4989667;28;20087;-76
2022/06/01 06:58:11;;;;;;;10.20;7.43;;;11.10;99.90;;;;;;4991632;28;20030;-76
2022/06/01 07:00:37;;;;;;;11.65;9.48;;;11.10;99.90;;;;;;4992955;28;20113;-76
2022/06/01 07:03:04;;;;;;;10.43;8.55;;;11.10;99.90;;;;;;4993889;28;20049;-76
2022/06/01 07:08:14;;;;;;;11.40;7.70;;;11.10;99.90;;;;;;4993375;28;20037;-77
2022/06/01 07:10:40;;;;;;;11.02;8.43;;;11.10;99.90;;;;;;4989564;28;20030;-77
2022/06/01 07:13:06;;;;;;;13.45;9.43;;;11.10;99.90;;;;;;4983284;28;20085;-76
2022/06/01 07:15:31;;;;;;;13.27;8.98;;;11.10;99.90;;;;;;4985898;28;20035;-76
2022/06/01 07:17:59;;;;;;;11.70;8.82;;;11.10;99.90;;;;;;4987562;28;20033;-76
2022/06/01 07:20:25;;;;;;;10.85;8.82;;;11.20;99.90;;;;;;4980791;28;20042;-76
2022/06/01 07:22:50;;;;;;;12.43;9.88;;;11.20;99.90;;;;;;4981086;28;20023;-76
2022/06/01 07:25:16;;;;;;;12.18;8.93;;;11.20;99.90;;;;;;4981616;28;20030;-77
2022/06/01 07:27:42;;;;;;;11.85;9.68;;;11.30;99.90;;;;;;4982080;28;20037;-75
2022/06/01 07:30:10;;;;;;;12.25;8.55;;;11.30;99.90;;;;;;4986104;28;20548;-76
2022/06/01 07:32:36;;;;;;;12.32;8.52;;;11.20;99.90;;;;;;4986450;28;20092;-77
2022/06/01 07:35:03;;;;;;;12.43;8.85;;;11.30;99.90;;;;;;5000923;28;20494;-77
2022/06/01 07:43:07;;;;;;;13.50;9.75;;;11.40;99.90;;;;;;4982992;28;20057;-77
2022/06/01 07:45:44;;;;;;;13.20;8.80;;;11.50;99.90;;;;;;4987004;28;20060;-76
2022/06/01 07:48:11;;;;;;;13.68;9.18;;;11.50;99.90;;;;;;4986281;28;20036;-75
2022/06/01 07:50:37;;;;;;;15.05;9.95;;;11.50;99.90;;;;;;4984029;28;20065;-77
2022/06/01 07:53:06;;;;;;;15.88;8.95;;;11.50;99.90;;;;;;4985851;28;20038;-76
2022/06/01 07:55:32;;;;;;;11.88;9.93;;;11.50;99.90;;;;;;4986684;28;20410;-76
2022/06/01 07:57:58;;;;;;;9.60;7.82;;;11.60;99.90;;;;;;4964884;28;20029;-77
2022/06/01 08:00:24;;;;;;;11.60;9.07;;;11.60;99.90;;;;;;4986508;28;20510;-77
2022/06/01 08:02:50;;;;;;;13.30;9.93;;;11.70;99.90;;;;;;4976569;28;20022;-76
2022/06/01 08:05:18;;;;;;;11.65;9.25;;;11.80;99.90;;;;;;4977590;28;20062;-77
2022/06/01 08:07:44;;;;;;;10.90;9.18;;;11.80;99.90;;;;;;4984407;28;20065;-76
2022/06/01 08:10:12;;;;;;;12.95;9.02;;;11.90;99.90;;;;;;4985869;28;20038;-77
2022/06/01 08:13:20;;;;;;;12.93;10.32;;;12.00;99.90;;;;;;4986278;28;20494;-77
2022/06/01 08:15:27;;;;;;;10.70;8.77;;;12.00;99.90;;;;;;4979873;28;20038;-76
2022/06/01 08:17:54;;;;;;;10.32;9.10;;;12.10;99.90;;;;;;4977277;28;20046;-77
2022/06/01 08:20:20;;;;;;;13.60;9.35;;;12.20;99.90;;;;;;4984600;28;20027;-76
2022/06/01 08:22:46;;;;;;;11.55;9.75;;;12.40;99.90;;;;;;4992967;28;20478;-77
2022/06/01 08:25:14;;;;;;;13.35;9.45;;;12.40;99.90;;;;;;4972432;28;20039;-77
2022/06/01 08:27:39;;;;;;;11.57;8.98;;;12.40;99.90;;;;;;4977662;28;20072;-77
2022/06/01 08:30:06;;;;;;;11.73;8.43;;;12.60;99.90;;;;;;4977050;28;20070;-75
2022/06/01 08:32:32;;;;;;;11.95;9.10;;;12.60;99.90;;;;;;4965235;28;20465;-77
2022/06/01 08:34:57;;;;;;;10.93;8.68;;;12.70;99.90;;;;;;4990068;28;20026;-77
2022/06/01 08:37:23;;;;;;;9.95;8.93;;;12.70;99.90;;;;;;4989725;28;20026;-76
2022/06/01 08:39:49;;;;;;;9.23;8.15;;;12.80;99.90;;;;;;4990289;28;20037;-76
2022/06/01 08:42:18;;;;;;;11.25;9.30;;;12.80;99.90;;;;;;4982231;28;20577;-76
2022/06/01 08:44:46;;;;;;;13.98;8.38;;;13.00;99.90;;;;;;4981113;28;20034;-77
2022/06/01 08:47:35;;;;;;;9.00;8.07;;;13.10;99.90;;;;;;4982404;28;20041;-77
2022/06/01 08:50:05;;;;;;;11.18;7.47;;;13.30;99.90;;;;;;4977571;28;20031;-77
2022/06/01 08:52:31;;;;;;;8.82;7.53;;;13.30;99.90;;;;;;4979782;28;20204;-77
2022/06/01 08:54:57;;;;;;;6.88;5.72;;;13.60;99.90;;;;;;4976520;28;20065;-77
2022/06/01 08:57:26;;;;;;;5.95;5.35;;;13.80;99.90;;;;;;4981624;28;20497;-77
2022/06/01 09:00:11;;;;;;;6.03;5.43;;;14.00;99.90;;;;;;4979508;28;20022;-77
2022/06/01 09:02:54;;;;;;;6.90;4.95;;;14.10;99.90;;;;;;4961654;28;20030;-77
2022/06/01 09:05:44;;;;;;;6.85;5.35;;;14.00;99.90;;;;;;4981280;28;20085;-77
2022/06/01 09:08:24;;;;;;;7.57;6.68;;;14.00;99.90;;;;;;4981555;28;20447;-77
2022/06/01 09:10:56;;;;;;;6.97;4.40;;;13.90;99.90;;;;;;4979694;28;20057;-75
2022/06/01 09:13:30;;;;;;;7.07;4.90;;;13.70;99.90;;;;;;4992782;28;20035;-76
2022/06/01 09:16:02;;;;;;;5.15;4.45;;;13.70;99.90;;;;;;4986796;28;20034;-76
2022/06/01 09:18:29;;;;;;;;;;;13.80;99.90;;;;;;4990361;28;20102;-76
2022/06/01 09:23:41;;;;;;;5.18;4.30;;;13.90;99.90;;;;;;4989447;28;20033;-77
2022/06/01 09:26:08;;;;;;;5.65;4.30;;;14.00;99.90;;;;;;4990045;28;20030;-77
2022/06/01 09:28:43;;;;;;;6.97;3.72;;;14.10;99.90;;;;;;4991319;28;20105;-77
2022/06/01 09:31:38;;;;;;;4.10;3.53;;;14.20;99.90;;;;;;4988556;28;20050;-76
2022/06/01 09:34:27;;;;;;;4.85;4.13;;;14.50;99.90;;;;;;4991864;28;20337;-76
2022/06/01 09:37:04;;;;;;;4.13;3.72;;;14.70;99.90;;;;;;4990229;28;20108;-76
2022/06/01 09:39:30;;;;;;;5.35;4.43;;;14.80;99.90;;;;;;4989638;28;20525;-76
2022/06/01 09:42:16;;;;;;;7.05;3.72;;;14.80;99.90;;;;;;4989216;28;20022;-76
2022/06/01 09:44:45;;;;;;;4.60;3.28;;;15.00;99.90;;;;;;4987734;28;20491;-76
2022/06/01 09:47:27;;;;;;;4.47;3.20;;;15.20;99.90;;;;;;4984405;28;20038;-76
2022/06/01 09:49:56;;;;;;;5.90;2.95;;;15.30;99.90;;;;;;4990119;28;20038;-77
2022/06/01 09:52:39;;;;;;;3.50;2.80;;;15.30;99.90;;;;;;4991639;28;20026;-76
2022/06/01 09:55:23;;;;;;;2.65;2.20;;;15.30;99.90;;;;;;4989507;28;20034;-77
2022/06/01 10:06:05;;;;;;;3.40;2.53;;;15.20;99.90;;;;;;4987240;28;20450;-76
2022/06/01 10:06:55;;;;;;;4.15;2.60;;;15.00;99.90;;;;;;4996072;28;21283;-76
2022/06/01 10:09:25;;;;;;;2.83;2.30;;;15.00;99.90;;;;;;4981157;28;20030;-77
2022/06/01 10:11:54;;;;;;;3.72;2.33;;;15.10;99.90;;;;;;4980858;28;20083;-78
2022/06/01 10:14:35;;;;;;;2.53;1.80;;;15.00;99.90;;;;;;4985442;28;20411;-77
2022/06/01 10:17:06;;;;;;;3.33;1.85;;;15.00;99.90;;;;;;4985966;28;20560;-77
2022/06/01 10:19:35;;;;;;;2.33;1.77;;;14.90;99.90;;;;;;4983783;28;20061;-77
2022/06/01 10:22:23;;;;;;;4.85;2.63;;;14.90;99.90;;;;;;4970796;28;20087;-77
2022/06/01 10:25:13;;;;;;;2.78;2.25;;;15.00;99.90;;;;;;4984470;28;20269;-78
2022/06/01 10:27:49;;;;;;;3.47;2.30;;;15.20;99.90;;;;;;4987826;28;20038;-77
2022/06/01 10:30:25;;;;;;;3.42;2.72;;;15.40;99.90;;;;;;4967608;28;20038;-77
2022/06/01 10:33:08;;;;;;;2.20;2.00;;;15.50;99.90;;;;;;4984465;28;20394;-78
2022/06/01 10:36:03;;;;;;;3.33;2.70;;;15.90;99.90;;;;;;4963591;28;20483;-75
2022/06/01 10:39:04;;;;;;;3.28;2.90;;;16.20;99.90;;;;;;4984195;28;20064;-78
2022/06/01 10:41:43;;;;;;;4.35;3.00;;;16.70;99.90;;;;;;4982583;28;20092;-76
2022/06/01 10:44:29;;;;;;;3.22;2.85;;;17.00;99.90;;;;;;4970640;28;20061;-76
2022/06/01 10:47:00;;;;;;;4.28;3.67;;;17.20;99.90;;;;;;4982776;28;20030;-76
2022/06/01 10:49:36;;;;;;;;;;;17.00;99.90;;;;;;4981392;28;20063;-75
2022/06/01 10:52:20;;;;;;;2.83;2.40;;;17.10;99.90;;;;;;4981910;28;19914;-75
2022/06/01 10:54:53;;;;;;;3.75;3.10;;;17.10;99.90;;;;;;4975411;28;20038;-76
2022/06/01 10:57:21;;;;;;;3.22;2.42;;;17.00;99.90;;;;;;4959742;28;20066;-75
2022/06/01 10:59:48;;;;;;;3.60;2.63;;;17.00;99.90;;;;;;4963731;28;20037;-76
2022/06/01 11:02:39;;;;;;;3.53;2.72;;;17.10;99.90;;;;;;4979654;28;20033;-76
2022/06/01 11:05:42;;;;;;;5.28;3.58;;;17.20;99.90;;;;;;4984141;28;20045;-76
2022/06/01 11:08:20;;;;;;;3.60;2.97;;;17.40;99.90;;;;;;4985976;28;20038;-76
2022/06/01 11:10:58;;;;;;;3.08;2.22;;;17.50;99.90;;;;;;4989958;28;20038;-76
2022/06/01 11:13:29;;;;;;;3.78;2.83;;;17.80;99.90;;;;;;4987505;28;20499;-76
2022/06/01 11:16:01;;;;;;;2.28;2.08;;;18.10;99.90;;;;;;4969947;28;20527;-76
2022/06/01 11:18:34;;;;;;;2.50;2.30;;;19.00;99.90;;;;;;4982816;28;20027;-77
2022/06/01 11:21:24;;;;;;;2.22;1.85;;;20.10;99.90;;;;;;4980191;28;21526;-77
2022/06/01 11:24:27;;;;;;;2.45;1.90;;;22.00;99.90;;;;;;4979320;28;20034;-76
2022/06/01 11:27:17;;;;;;;2.85;2.40;;;24.00;99.90;;;;;;4981750;28;20027;-76
2022/06/01 11:30:04;;;;;;;2.85;2.22;;;25.20;93.10;;;;;;4993271;28;20110;-77
2022/06/01 11:32:43;;;;;;;1.70;1.55;;;26.80;85.10;;;;;;4979878;28;20019;-77
2022/06/01 11:35:41;;;;;;;3.90;2.58;;;27.80;78.10;;;;;;4983310;28;20035;-77
2022/06/01 11:38:25;;;;;;;3.65;2.10;;;29.00;66.60;;;;;;4967723;28;20022;-77
2022/06/01 11:40:58;;;;;;;3.17;1.67;;;29.90;62.20;;;;;;4979956;28;20065;-76
2022/06/01 11:43:36;;;;;;;2.85;1.90;;;29.20;62.30;;;;;;4980715;28;20031;-77
2022/06/01 11:46:10;;;;;;;3.30;2.60;;;29.40;61.80;;;;;;4979326;28;20026;-78
2022/06/01 11:48:39;;;;;;;2.15;1.80;;;29.80;53.50;;;;;;4981049;28;20031;-77
2022/06/01 11:51:16;;;;;;;3.42;1.95;;;30.20;54.90;;;;;;4979610;28;20030;-77
2022/06/01 11:53:41;;;;;;;2.20;1.80;;;29.80;54.80;;;;;;4980186;28;20498;-74
2022/06/01 11:56:28;;;;;;;2.33;2.13;;;28.50;54.60;;;;;;4999481;28;20049;-75
2022/06/01 11:59:05;;;;;;;3.05;2.47;;;26.50;58.40;;;;;;4979236;28;20041;-76
2022/06/01 12:01:47;;;;;;;2.28;2.08;;;24.60;62.90;;;;;;4984390;28;20374;-75
2022/06/01 12:04:22;;;;;;;3.10;2.80;;;23.00;65.90;;;;;;4983306;28;20495;-77
2022/06/01 12:07:15;;;;;;;3.65;2.67;;;21.90;75.50;;;;;;4981669;28;20118;-77
2022/06/01 12:09:48;;;;;;;4.53;2.70;;;21.60;86.20;;;;;;4983738;28;20023;-77
2022/06/01 12:12:44;;;;;;;4.70;3.50;;;22.00;93.10;;;;;;4983331;28;20407;-76
2022/06/01 12:15:19;;;;;;;3.22;2.92;;;22.80;92.00;;;;;;4965615;28;20042;-77
2022/06/01 12:18:06;;;;;;;5.47;4.07;;;23.70;86.90;;;;;;4977696;28;20023;-77
2022/06/01 12:20:31;;;;;;;4.55;3.00;;;24.50;75.40;;;;;;4986275;28;20018;-77
2022/06/01 12:29:09;;;;;;;4.68;3.25;;;26.00;66.20;;;;;;4981020;28;20124;-77
2022/06/01 12:31:35;;;;;;;5.07;3.90;;;26.20;64.00;;;;;;4980198;28;20027;-78
2022/06/01 12:34:13;;;;;;;5.80;3.63;;;26.80;62.40;;;;;;4985605;28;20037;-77
2022/06/01 12:36:56;;;;;;;3.47;3.08;;;26.30;59.00;;;;;;4982461;28;20034;-77
2022/06/01 12:39:22;;;;;;;5.05;3.83;;;26.80;62.50;;;;;;4984512;28;20554;-75
2022/06/01 12:41:58;;;;;;;5.13;4.57;;;26.50;60.40;;;;;;4982630;28;20117;-76
2022/06/01 12:44:23;;;;;;;5.53;5.03;;;26.80;58.70;;;;;;4970032;28;20122;-76
2022/06/01 12:46:51;;;;;;;4.20;3.05;;;27.50;59.40;;;;;;4985754;28;20045;-77
2022/06/01 12:49:32;;;;;;;4.93;3.63;;;28.20;59.70;;;;;;4986387;28;20082;-77
2022/06/01 12:52:04;;;;;;;7.13;5.00;;;29.00;56.60;;;;;;4985596;28;20104;-77
2022/06/01 12:54:52;;;;;;;83.20;69.05;;;29.20;54.30;;;;;;4982744;28;20487;-76
2022/06/01 12:57:37;;;;;;;9.57;7.85;;;29.70;52.40;;;;;;4983381;28;20042;-77
2022/06/01 13:00:29;;;;;;;89.60;68.75;;;29.60;51.20;;;;;;4988533;28;20374;-75
2022/06/01 13:02:55;;;;;;;20.80;17.38;;;28.90;55.80;;;;;;4984049;28;20047;-76
2022/06/01 13:05:34;;;;;;;7.05;6.28;;;28.00;56.40;;;;;;4985140;28;20022;-76
2022/06/01 13:08:00;;;;;;;9.02;7.45;;;26.80;56.40;;;;;;4985126;28;20026;-76
2022/06/01 13:10:30;;;;;;;8.55;7.65;;;25.50;58.30;;;;;;4983495;28;20035;-75
2022/06/01 13:13:12;;;;;;;9.73;7.70;;;24.40;60.00;;;;;;4991129;28;20101;-77
2022/06/01 13:15:42;;;;;;;10.98;9.18;;;23.30;61.80;;;;;;4983868;28;20042;-77
2022/06/01 13:18:18;;;;;;;9.35;8.02;;;22.30;64.70;;;;;;4982061;28;20101;-77
2022/06/01 13:21:00;;;;;;;8.25;4.80;;;20.90;67.90;;;;;;4987036;28;20037;-76
2022/06/01 13:23:33;;;;;;;5.20;3.10;;;20.00;76.20;;;;;;4969510;28;20033;-77
2022/06/01 13:26:03;;;;;;;3.85;3.13;;;19.30;76.20;;;;;;4964885;28;20030;-75
2022/06/01 13:28:29;;;;;;;5.70;2.67;;;18.80;78.40;;;;;;4967377;28;20034;-74
2022/06/01 13:30:58;;;;;;;5.47;2.45;;;18.30;91.10;;;;;;4964495;28;20039;-76
2022/06/01 13:33:31;;;;;;;4.45;2.17;;;18.00;92.30;;;;;;4986468;28;20030;-74
2022/06/01 13:36:02;;;;;;;3.30;1.70;;;17.70;94.00;;;;;;4981041;28;20414;-75
2022/06/01 13:38:45;;;;;;;3.80;1.73;;;17.30;95.00;;;;;;4982719;28;20123;-74